sensor_id;sensor_type;location;lat;lon;timestamp;pressure;altitude;pressure_sealevel;temperature;humidity
29839;BME280;18669;53.356;-1.464;2023-04-03T00:02:21;102273.06;;;3.33;100.00
29839;BME280;18669;53.356;-1.464;2023-04-03T00:05:07;102268.81;;;3.35;100.00
29839;BME280;18669;53.356;-1.464;2023-04-03T00:07:52;102274.56;;;3.26;100.00
29839;BME280;18669;53.356;-1.464;2023-04-03T00:10:37;102269.84;;;3.16;100.00
29839;BME280;18669;53.356;-1.464;2023-04-03T00:13:22;102278.25;;;3.09;100.00
29839;BME280;18669;53.356;-1.464;2023-04-03T00:16:07;102274.38;;;3.22;100.00
29839;BME280;18669;53.356;-1.464;2023-04-03T00:18:52;102269.97;;;3.19;100.00
29839;BME280;18669;53.356;-1.464;2023-04-03T00:21:37;102272.53;;;3.18;100.00
29839;BME280;18669;53.356;-1.464;2023-04-03T00:24:22;102273.25;;;3.13;100.00
29839;BME280;18669;53.356;-1.464;2023-04-03T00:27:07;102267.97;;;3.12;100.00
29839;BME280;18669;53.356;-1.464;2023-04-03T00:29:52;102273.06;;;3.09;100.00
29839;BME280;18669;53.356;-1.464;2023-04-03T00:32:37;102269.13;;;2.96;100.00
29839;BME280;18669;53.356;-1.464;2023-04-03T00:35:23;102272.31;;;2.89;100.00
29839;BME280;18669;53.356;-1.464;2023-04-03T00:38:08;102262.34;;;2.77;100.00
29839;BME280;18669;53.356;-1.464;2023-04-03T00:40:53;102265.66;;;2.73;100.00
29839;BME280;18669;53.356;-1.464;2023-04-03T00:43:38;102267.50;;;2.75;100.00
29839;BME280;18669;53.356;-1.464;2023-04-03T00:46:23;102271.78;;;2.75;100.00
29839;BME280;18669;53.356;-1.464;2023-04-03T00:49:08;102263.81;;;2.70;100.00
29839;BME280;18669;53.356;-1.464;2023-04-03T00:51:53;102265.47;;;2.68;100.00
29839;BME280;18669;53.356;-1.464;2023-04-03T00:54:39;102268.94;;;2.68;100.00
29839;BME280;18669;53.356;-1.464;2023-04-03T00:57:26;102258.63;;;2.70;100.00
29839;BME280;18669;53.356;-1.464;2023-04-03T01:00:14;102277.53;;;2.66;100.00
29839;BME280;18669;53.356;-1.464;2023-04-03T01:03:01;102271.25;;;2.61;100.00
29839;BME280;18669;53.356;-1.464;2023-04-03T01:05:46;102269.44;;;2.58;100.00
29839;BME280;18669;53.356;-1.464;2023-04-03T01:08:30;102266.94;;;2.38;100.00
29839;BME280;18669;53.356;-1.464;2023-04-03T01:11:15;102271.44;;;2.43;100.00
29839;BME280;18669;53.356;-1.464;2023-04-03T01:14:00;102270.59;;;2.44;100.00
29839;BME280;18669;53.356;-1.464;2023-04-03T01:16:55;102269.31;;;2.55;100.00
29839;BME280;18669;53.356;-1.464;2023-04-03T01:19:43;102264.13;;;2.55;100.00
29839;BME280;18669;53.356;-1.464;2023-04-03T01:22:44;102270.19;;;2.56;100.00
29839;BME280;18669;53.356;-1.464;2023-04-03T01:25:55;102261.19;;;2.47;100.00
29839;BME280;18669;53.356;-1.464;2023-04-03T01:28:40;102263.09;;;2.29;100.00
29839;BME280;18669;53.356;-1.464;2023-04-03T01:34:12;102263.38;;;2.36;100.00
29839;BME280;18669;53.356;-1.464;2023-04-03T01:36:57;102263.59;;;2.41;100.00
29839;BME280;18669;53.356;-1.464;2023-04-03T01:39:42;102264.88;;;2.30;100.00
29839;BME280;18669;53.356;-1.464;2023-04-03T01:42:26;102261.19;;;2.24;100.00
29839;BME280;18669;53.356;-1.464;2023-04-03T01:45:11;102256.44;;;2.14;100.00
29839;BME280;18669;53.356;-1.464;2023-04-03T01:47:56;102259.03;;;2.14;100.00
29839;BME280;18669;53.356;-1.464;2023-04-03T01:50:41;102254.75;;;2.15;100.00
29839;BME280;18669;53.356;-1.464;2023-04-03T01:53:26;102251.16;;;2.11;100.00
29839;BME280;18669;53.356;-1.464;2023-04-03T01:56:10;102257.25;;;2.13;100.00
29839;BME280;18669;53.356;-1.464;2023-04-03T01:58:55;102254.56;;;2.10;100.00
29839;BME280;18669;53.356;-1.464;2023-04-03T02:01:40;102256.53;;;2.16;100.00
29839;BME280;18669;53.356;-1.464;2023-04-03T02:04:25;102253.94;;;2.16;100.00
29839;BME280;18669;53.356;-1.464;2023-04-03T02:07:10;102258.47;;;2.21;100.00
29839;BME280;18669;53.356;-1.464;2023-04-03T02:09:55;102252.88;;;2.33;100.00
29839;BME280;18669;53.356;-1.464;2023-04-03T02:12:40;102258.59;;;2.24;100.00
29839;BME280;18669;53.356;-1.464;2023-04-03T02:15:25;102239.69;;;2.06;100.00
29839;BME280;18669;53.356;-1.464;2023-04-03T02:18:09;102246.78;;;2.10;100.00
29839;BME280;18669;53.356;-1.464;2023-04-03T02:20:54;102249.88;;;2.01;100.00
29839;BME280;18669;53.356;-1.464;2023-04-03T02:23:39;102251.47;;;1.98;100.00
29839;BME280;18669;53.356;-1.464;2023-04-03T02:26:24;102248.47;;;1.88;100.00
29839;BME280;18669;53.356;-1.464;2023-04-03T02:29:10;102251.06;;;1.88;100.00
29839;BME280;18669;53.356;-1.464;2023-04-03T02:31:55;102247.47;;;1.85;100.00
29839;BME280;18669;53.356;-1.464;2023-04-03T02:34:39;102240.44;;;1.82;100.00
29839;BME280;18669;53.356;-1.464;2023-04-03T02:37:24;102242.97;;;1.81;100.00
29839;BME280;18669;53.356;-1.464;2023-04-03T02:40:09;102252.53;;;1.82;100.00
29839;BME280;18669;53.356;-1.464;2023-04-03T02:42:56;102251.03;;;1.87;100.00
29839;BME280;18669;53.356;-1.464;2023-04-03T02:45:40;102246.72;;;1.87;100.00
29839;BME280;18669;53.356;-1.464;2023-04-03T02:48:25;102249.31;;;1.87;100.00
29839;BME280;18669;53.356;-1.464;2023-04-03T02:51:10;102251.16;;;1.90;100.00
29839;BME280;18669;53.356;-1.464;2023-04-03T02:53:55;102254.56;;;1.89;100.00
29839;BME280;18669;53.356;-1.464;2023-04-03T02:56:40;102247.28;;;1.80;100.00
29839;BME280;18669;53.356;-1.464;2023-04-03T02:59:25;102249.88;;;1.80;100.00
29839;BME280;18669;53.356;-1.464;2023-04-03T03:02:10;102249.31;;;1.87;100.00
29839;BME280;18669;53.356;-1.464;2023-04-03T03:04:55;102250.75;;;1.81;100.00
29839;BME280;18669;53.356;-1.464;2023-04-03T03:07:40;102249.72;;;1.77;100.00
29839;BME280;18669;53.356;-1.464;2023-04-03T03:10:25;102250.06;;;1.63;100.00
29839;BME280;18669;53.356;-1.464;2023-04-03T03:13:10;102253.16;;;1.55;100.00
29839;BME280;18669;53.356;-1.464;2023-04-03T03:15:55;102252.25;;;1.54;100.00
29839;BME280;18669;53.356;-1.464;2023-04-03T03:18:41;102245.09;;;1.48;100.00
29839;BME280;18669;53.356;-1.464;2023-04-03T03:21:26;102245.03;;;1.47;100.00
29839;BME280;18669;53.356;-1.464;2023-04-03T03:24:10;102239.91;;;1.48;100.00
29839;BME280;18669;53.356;-1.464;2023-04-03T03:26:56;102238.00;;;1.44;100.00
29839;BME280;18669;53.356;-1.464;2023-04-03T03:29:42;102237.06;;;1.42;100.00
29839;BME280;18669;53.356;-1.464;2023-04-03T03:32:26;102236.22;;;1.43;100.00
29839;BME280;18669;53.356;-1.464;2023-04-03T03:35:11;102241.25;;;1.39;100.00
29839;BME280;18669;53.356;-1.464;2023-04-03T03:37:56;102242.19;;;1.41;100.00
29839;BME280;18669;53.356;-1.464;2023-04-03T03:40:41;102234.50;;;1.44;100.00
29839;BME280;18669;53.356;-1.464;2023-04-03T03:43:27;102233.81;;;1.48;100.00
29839;BME280;18669;53.356;-1.464;2023-04-03T03:46:11;102224.28;;;1.47;100.00
29839;BME280;18669;53.356;-1.464;2023-04-03T03:48:56;102233.13;;;1.52;100.00
29839;BME280;18669;53.356;-1.464;2023-04-03T03:51:41;102237.50;;;1.53;100.00
29839;BME280;18669;53.356;-1.464;2023-04-03T03:54:26;102228.63;;;1.48;100.00
29839;BME280;18669;53.356;-1.464;2023-04-03T03:57:11;102228.38;;;1.42;100.00
29839;BME280;18669;53.356;-1.464;2023-04-03T03:59:56;102229.31;;;1.44;100.00
29839;BME280;18669;53.356;-1.464;2023-04-03T04:02:41;102228.59;;;1.46;100.00
29839;BME280;18669;53.356;-1.464;2023-04-03T04:05:26;102231.72;;;1.39;100.00
29839;BME280;18669;53.356;-1.464;2023-04-03T04:08:11;102225.41;;;1.32;100.00
29839;BME280;18669;53.356;-1.464;2023-04-03T04:10:56;102227.88;;;1.29;100.00
29839;BME280;18669;53.356;-1.464;2023-04-03T04:13:41;102230.50;;;1.31;100.00
29839;BME280;18669;53.356;-1.464;2023-04-03T04:16:26;102224.03;;;1.21;100.00
29839;BME280;18669;53.356;-1.464;2023-04-03T04:19:10;102224.66;;;1.15;100.00
29839;BME280;18669;53.356;-1.464;2023-04-03T04:21:55;102227.25;;;1.15;100.00
29839;BME280;18669;53.356;-1.464;2023-04-03T04:24:41;102234.22;;;1.16;100.00
29839;BME280;18669;53.356;-1.464;2023-04-03T04:27:25;102235.09;;;1.17;100.00
29839;BME280;18669;53.356;-1.464;2023-04-03T04:30:10;102226.63;;;1.21;100.00
29839;BME280;18669;53.356;-1.464;2023-04-03T04:32:55;102229.91;;;1.17;100.00
29839;BME280;18669;53.356;-1.464;2023-04-03T04:35:42;102228.41;;;1.22;100.00
29839;BME280;18669;53.356;-1.464;2023-04-03T04:38:27;102228.81;;;1.12;100.00
29839;BME280;18669;53.356;-1.464;2023-04-03T04:41:12;102227.03;;;1.11;100.00
29839;BME280;18669;53.356;-1.464;2023-04-03T04:43:57;102219.75;;;1.02;100.00
29839;BME280;18669;53.356;-1.464;2023-04-03T04:46:42;102225.03;;;1.03;100.00
29839;BME280;18669;53.356;-1.464;2023-04-03T04:49:26;102215.25;;;0.98;100.00
29839;BME280;18669;53.356;-1.464;2023-04-03T04:52:11;102218.59;;;0.95;100.00
29839;BME280;18669;53.356;-1.464;2023-04-03T04:54:56;102213.75;;;0.83;100.00
29839;BME280;18669;53.356;-1.464;2023-04-03T04:57:41;102212.03;;;0.84;100.00
29839;BME280;18669;53.356;-1.464;2023-04-03T05:00:26;102217.41;;;0.88;100.00
29839;BME280;18669;53.356;-1.464;2023-04-03T05:03:11;102211.50;;;0.91;100.00
29839;BME280;18669;53.356;-1.464;2023-04-03T05:05:56;102210.69;;;0.92;100.00
29839;BME280;18669;53.356;-1.464;2023-04-03T05:08:41;102222.88;;;0.95;100.00
29839;BME280;18669;53.356;-1.464;2023-04-03T05:11:26;102212.50;;;0.95;100.00
29839;BME280;18669;53.356;-1.464;2023-04-03T05:14:11;102219.41;;;0.94;100.00
29839;BME280;18669;53.356;-1.464;2023-04-03T05:16:56;102226.22;;;0.92;100.00
29839;BME280;18669;53.356;-1.464;2023-04-03T05:19:41;102226.16;;;0.91;100.00
29839;BME280;18669;53.356;-1.464;2023-04-03T05:22:26;102219.09;;;0.86;100.00
29839;BME280;18669;53.356;-1.464;2023-04-03T05:25:11;102227.59;;;0.84;100.00
29839;BME280;18669;53.356;-1.464;2023-04-03T05:27:56;102231.13;;;0.86;100.00
29839;BME280;18669;53.356;-1.464;2023-04-03T05:30:41;102232.38;;;0.94;100.00
29839;BME280;18669;53.356;-1.464;2023-04-03T05:33:26;102234.16;;;0.95;100.00
29839;BME280;18669;53.356;-1.464;2023-04-03T05:36:11;102224.59;;;0.94;100.00
29839;BME280;18669;53.356;-1.464;2023-04-03T05:38:57;102239.25;;;0.94;100.00
29839;BME280;18669;53.356;-1.464;2023-04-03T05:41:42;102236.41;;;0.87;100.00
29839;BME280;18669;53.356;-1.464;2023-04-03T05:44:27;102241.78;;;0.92;100.00
29839;BME280;18669;53.356;-1.464;2023-04-03T05:47:11;102239.38;;;0.97;100.00
29839;BME280;18669;53.356;-1.464;2023-04-03T05:49:56;102242.66;;;0.93;100.00
29839;BME280;18669;53.356;-1.464;2023-04-03T05:52:44;102237.88;;;1.02;100.00
29839;BME280;18669;53.356;-1.464;2023-04-03T05:55:30;102251.19;;;0.90;100.00
29839;BME280;18669;53.356;-1.464;2023-04-03T05:58:14;102249.41;;;0.89;100.00
29839;BME280;18669;53.356;-1.464;2023-04-03T06:00:59;102251.94;;;0.87;100.00
29839;BME280;18669;53.356;-1.464;2023-04-03T06:03:45;102248.47;;;0.87;100.00
29839;BME280;18669;53.356;-1.464;2023-04-03T06:07:02;102250.31;;;1.09;100.00
29839;BME280;18669;53.356;-1.464;2023-04-03T06:09:47;102248.88;;;0.96;100.00
29839;BME280;18669;53.356;-1.464;2023-04-03T06:12:32;102254.75;;;0.92;100.00
29839;BME280;18669;53.356;-1.464;2023-04-03T06:15:17;102246.81;;;0.89;100.00
29839;BME280;18669;53.356;-1.464;2023-04-03T06:18:02;102251.25;;;0.92;100.00
29839;BME280;18669;53.356;-1.464;2023-04-03T06:20:46;102244.72;;;1.00;100.00
29839;BME280;18669;53.356;-1.464;2023-04-03T06:23:31;102256.22;;;1.07;100.00
29839;BME280;18669;53.356;-1.464;2023-04-03T06:26:17;102254.88;;;1.15;100.00
29839;BME280;18669;53.356;-1.464;2023-04-03T06:29:02;102254.47;;;1.25;100.00
29839;BME280;18669;53.356;-1.464;2023-04-03T06:31:47;102253.63;;;1.46;100.00
29839;BME280;18669;53.356;-1.464;2023-04-03T06:34:32;102251.38;;;1.54;100.00
29839;BME280;18669;53.356;-1.464;2023-04-03T06:37:19;102255.81;;;1.77;100.00
29839;BME280;18669;53.356;-1.464;2023-04-03T06:40:05;102250.38;;;1.92;100.00
29839;BME280;18669;53.356;-1.464;2023-04-03T06:42:49;102258.69;;;1.84;100.00
29839;BME280;18669;53.356;-1.464;2023-04-03T06:45:34;102249.94;;;2.03;100.00
29839;BME280;18669;53.356;-1.464;2023-04-03T06:48:20;102247.78;;;2.14;100.00
29839;BME280;18669;53.356;-1.464;2023-04-03T06:51:06;102250.75;;;2.23;100.00
29839;BME280;18669;53.356;-1.464;2023-04-03T06:53:52;102249.81;;;2.44;100.00
29839;BME280;18669;53.356;-1.464;2023-04-03T06:56:37;102241.19;;;2.45;100.00
29839;BME280;18669;53.356;-1.464;2023-04-03T06:59:22;102246.94;;;2.59;100.00
29839;BME280;18669;53.356;-1.464;2023-04-03T07:02:09;102250.25;;;2.77;100.00
29839;BME280;18669;53.356;-1.464;2023-04-03T07:04:54;102239.84;;;2.77;100.00
29839;BME280;18669;53.356;-1.464;2023-04-03T07:07:39;102243.72;;;2.89;100.00
29839;BME280;18669;53.356;-1.464;2023-04-03T07:10:25;102246.94;;;3.06;100.00
29839;BME280;18669;53.356;-1.464;2023-04-03T07:13:10;102242.47;;;3.26;100.00
29839;BME280;18669;53.356;-1.464;2023-04-03T07:15:55;102240.16;;;3.34;100.00
29839;BME280;18669;53.356;-1.464;2023-04-03T07:18:40;102240.53;;;3.45;100.00
29839;BME280;18669;53.356;-1.464;2023-04-03T07:21:26;102240.00;;;3.55;100.00
29839;BME280;18669;53.356;-1.464;2023-04-03T07:24:11;102239.72;;;3.73;100.00
29839;BME280;18669;53.356;-1.464;2023-04-03T07:26:55;102247.19;;;3.88;100.00
29839;BME280;18669;53.356;-1.464;2023-04-03T07:29:40;102244.25;;;4.05;100.00
29839;BME280;18669;53.356;-1.464;2023-04-03T07:32:25;102247.53;;;4.26;100.00
29839;BME280;18669;53.356;-1.464;2023-04-03T07:35:10;102238.47;;;4.42;100.00
29839;BME280;18669;53.356;-1.464;2023-04-03T07:37:55;102240.50;;;4.51;100.00
29839;BME280;18669;53.356;-1.464;2023-04-03T07:40:40;102245.91;;;4.57;100.00
29839;BME280;18669;53.356;-1.464;2023-04-03T07:43:29;102239.16;;;4.66;100.00
29839;BME280;18669;53.356;-1.464;2023-04-03T07:46:14;102245.69;;;4.80;100.00
29839;BME280;18669;53.356;-1.464;2023-04-03T07:48:59;102245.13;;;4.90;100.00
29839;BME280;18669;53.356;-1.464;2023-04-03T07:51:44;102241.47;;;5.16;100.00
29839;BME280;18669;53.356;-1.464;2023-04-03T07:54:29;102239.66;;;5.45;100.00
29839;BME280;18669;53.356;-1.464;2023-04-03T07:57:14;102237.69;;;5.70;100.00
29839;BME280;18669;53.356;-1.464;2023-04-03T07:59:59;102236.22;;;6.15;100.00
29839;BME280;18669;53.356;-1.464;2023-04-03T08:02:44;102237.53;;;6.74;100.00
29839;BME280;18669;53.356;-1.464;2023-04-03T08:05:38;102237.13;;;7.95;100.00
29839;BME280;18669;53.356;-1.464;2023-04-03T08:08:24;102232.19;;;8.74;100.00
29839;BME280;18669;53.356;-1.464;2023-04-03T08:11:10;102217.59;;;9.84;100.00
29839;BME280;18669;53.356;-1.464;2023-04-03T08:13:55;102222.56;;;10.77;96.93
29839;BME280;18669;53.356;-1.464;2023-04-03T08:16:41;102217.50;;;11.49;86.82
29839;BME280;18669;53.356;-1.464;2023-04-03T08:19:26;102214.84;;;12.33;67.58
29839;BME280;18669;53.356;-1.464;2023-04-03T08:22:11;102215.63;;;12.60;67.31
29839;BME280;18669;53.356;-1.464;2023-04-03T08:24:56;102215.63;;;12.59;61.57
29839;BME280;18669;53.356;-1.464;2023-04-03T08:27:41;102218.31;;;12.38;59.81
29839;BME280;18669;53.356;-1.464;2023-04-03T08:30:26;102212.16;;;12.36;59.46
29839;BME280;18669;53.356;-1.464;2023-04-03T08:33:10;102212.22;;;12.33;59.65
29839;BME280;18669;53.356;-1.464;2023-04-03T08:35:55;102212.22;;;12.19;60.37
29839;BME280;18669;53.356;-1.464;2023-04-03T08:38:40;102213.09;;;12.24;60.63
29839;BME280;18669;53.356;-1.464;2023-04-03T08:41:38;102211.38;;;12.11;58.10
29839;BME280;18669;53.356;-1.464;2023-04-03T08:44:25;102201.59;;;12.43;58.34
29839;BME280;18669;53.356;-1.464;2023-04-03T08:47:29;102201.34;;;13.05;54.63
29839;BME280;18669;53.356;-1.464;2023-04-03T08:50:20;102202.50;;;13.94;51.93
29839;BME280;18669;53.356;-1.464;2023-04-03T08:53:16;102201.19;;;13.33;51.52
29839;BME280;18669;53.356;-1.464;2023-04-03T08:56:08;102201.59;;;12.43;53.29
29839;BME280;18669;53.356;-1.464;2023-04-03T08:59:00;102208.63;;;12.44;55.49
29839;BME280;18669;53.356;-1.464;2023-04-03T09:01:46;102212.19;;;12.22;55.05
29839;BME280;18669;53.356;-1.464;2023-04-03T09:04:31;102206.06;;;11.85;54.77
29839;BME280;18669;53.356;-1.464;2023-04-03T09:07:30;102207.81;;;11.90;55.99
29839;BME280;18669;53.356;-1.464;2023-04-03T09:10:24;102213.09;;;12.35;55.12
29839;BME280;18669;53.356;-1.464;2023-04-03T09:16:25;102202.56;;;11.72;57.09
29839;BME280;18669;53.356;-1.464;2023-04-03T09:22:23;102202.53;;;12.29;55.88
29839;BME280;18669;53.356;-1.464;2023-04-03T09:25:15;102191.81;;;12.73;55.30
29839;BME280;18669;53.356;-1.464;2023-04-03T09:28:01;102190.75;;;13.06;53.70
29839;BME280;18669;53.356;-1.464;2023-04-03T09:30:47;102192.94;;;13.76;49.42
29839;BME280;18669;53.356;-1.464;2023-04-03T09:33:32;102198.03;;;12.65;50.92
29839;BME280;18669;53.356;-1.464;2023-04-03T09:36:41;102187.94;;;13.42;50.69
29839;BME280;18669;53.356;-1.464;2023-04-03T09:39:29;102182.22;;;13.93;49.70
29839;BME280;18669;53.356;-1.464;2023-04-03T09:42:19;102179.97;;;14.36;48.08
29839;BME280;18669;53.356;-1.464;2023-04-03T09:45:05;102184.31;;;14.44;46.42
29839;BME280;18669;53.356;-1.464;2023-04-03T09:48:04;102186.59;;;13.93;47.51
29839;BME280;18669;53.356;-1.464;2023-04-03T09:53:38;102174.63;;;14.42;47.48
29839;BME280;18669;53.356;-1.464;2023-04-03T09:56:28;102172.13;;;14.29;47.98
29839;BME280;18669;53.356;-1.464;2023-04-03T09:59:14;102173.19;;;14.13;49.46
29839;BME280;18669;53.356;-1.464;2023-04-03T10:02:22;102167.69;;;15.60;46.42
29839;BME280;18669;53.356;-1.464;2023-04-03T10:05:36;102172.16;;;16.08;42.90
29839;BME280;18669;53.356;-1.464;2023-04-03T10:08:30;102169.19;;;14.54;44.78
29839;BME280;18669;53.356;-1.464;2023-04-03T10:11:17;102171.53;;;13.99;46.38
29839;BME280;18669;53.356;-1.464;2023-04-03T10:14:03;102174.38;;;13.81;47.25
29839;BME280;18669;53.356;-1.464;2023-04-03T10:19:57;102164.44;;;12.92;50.03
29839;BME280;18669;53.356;-1.464;2023-04-03T10:22:45;102158.25;;;14.07;48.66
29839;BME280;18669;53.356;-1.464;2023-04-03T10:26:07;102155.41;;;14.98;45.48
29839;BME280;18669;53.356;-1.464;2023-04-03T10:28:57;102146.19;;;16.24;44.16
29839;BME280;18669;53.356;-1.464;2023-04-03T10:35:28;102143.72;;;17.70;39.17
29839;BME280;18669;53.356;-1.464;2023-04-03T10:38:24;102148.34;;;16.88;40.04
29839;BME280;18669;53.356;-1.464;2023-04-03T10:53:24;102139.59;;;17.58;38.58
29839;BME280;18669;53.356;-1.464;2023-04-03T10:56:30;102134.44;;;17.16;40.43
29839;BME280;18669;53.356;-1.464;2023-04-03T10:59:44;102135.66;;;17.03;41.07
29839;BME280;18669;53.356;-1.464;2023-04-03T11:02:51;102132.13;;;17.38;40.22
29839;BME280;18669;53.356;-1.464;2023-04-03T11:05:47;102125.38;;;17.93;40.14
29839;BME280;18669;53.356;-1.464;2023-04-03T11:08:48;102133.78;;;18.12;39.35
29839;BME280;18669;53.356;-1.464;2023-04-03T11:11:37;102118.16;;;17.65;39.54
29839;BME280;18669;53.356;-1.464;2023-04-03T11:14:27;102118.88;;;17.00;39.51
29839;BME280;18669;53.356;-1.464;2023-04-03T11:20:17;102120.59;;;16.61;41.01
29839;BME280;18669;53.356;-1.464;2023-04-03T11:23:06;102115.53;;;16.50;41.89
29839;BME280;18669;53.356;-1.464;2023-04-03T11:26:01;102102.72;;;16.28;41.83
29839;BME280;18669;53.356;-1.464;2023-04-03T11:28:53;102106.28;;;16.68;41.90
29839;BME280;18669;53.356;-1.464;2023-04-03T11:34:45;102091.84;;;15.96;42.38
29839;BME280;18669;53.356;-1.464;2023-04-03T11:37:39;102103.88;;;16.15;42.06
29839;BME280;18669;53.356;-1.464;2023-04-03T11:40:29;102091.25;;;16.67;41.10
29839;BME280;18669;53.356;-1.464;2023-04-03T11:46:05;102098.22;;;17.80;39.46
29839;BME280;18669;53.356;-1.464;2023-04-03T11:48:51;102087.09;;;17.30;39.92
29839;BME280;18669;53.356;-1.464;2023-04-03T11:51:39;102090.28;;;17.10;40.20
29839;BME280;18669;53.356;-1.464;2023-04-03T11:54:44;102078.53;;;17.87;39.94
29839;BME280;18669;53.356;-1.464;2023-04-03T12:03:34;102069.47;;;21.87;32.69
29839;BME280;18669;53.356;-1.464;2023-04-03T12:15:38;102054.88;;;21.74;33.02
29839;BME280;18669;53.356;-1.464;2023-04-03T12:27:38;102046.91;;;19.72;35.80
29839;BME280;18669;53.356;-1.464;2023-04-03T12:30:29;102050.22;;;19.53;35.75
29839;BME280;18669;53.356;-1.464;2023-04-03T12:33:32;102045.38;;;19.90;35.52
29839;BME280;18669;53.356;-1.464;2023-04-03T12:45:25;102032.00;;;19.14;35.61
29839;BME280;18669;53.356;-1.464;2023-04-03T12:48:21;102038.72;;;18.99;35.64
29839;BME280;18669;53.356;-1.464;2023-04-03T12:51:07;102029.88;;;18.70;36.14
29839;BME280;18669;53.356;-1.464;2023-04-03T12:53:57;102024.69;;;18.37;36.76
29839;BME280;18669;53.356;-1.464;2023-04-03T12:56:44;102025.84;;;17.98;37.41
29839;BME280;18669;53.356;-1.464;2023-04-03T12:59:30;102016.59;;;17.14;38.05
29839;BME280;18669;53.356;-1.464;2023-04-03T13:05:08;102017.81;;;16.63;40.57
29839;BME280;18669;53.356;-1.464;2023-04-03T13:08:05;102019.63;;;16.61;40.72
29839;BME280;18669;53.356;-1.464;2023-04-03T13:11:06;102012.41;;;17.40;39.25
29839;BME280;18669;53.356;-1.464;2023-04-03T13:14:12;101999.56;;;17.54;39.23
29839;BME280;18669;53.356;-1.464;2023-04-03T13:17:03;101994.38;;;17.50;39.81
29839;BME280;18669;53.356;-1.464;2023-04-03T13:19:48;101990.97;;;17.44;39.10
29839;BME280;18669;53.356;-1.464;2023-04-03T13:22:35;101993.28;;;17.88;38.83
29839;BME280;18669;53.356;-1.464;2023-04-03T13:25:25;101995.34;;;18.10;37.31
29839;BME280;18669;53.356;-1.464;2023-04-03T13:28:14;101990.69;;;19.01;37.11
29839;BME280;18669;53.356;-1.464;2023-04-03T13:31:01;101977.38;;;19.99;34.85
29839;BME280;18669;53.356;-1.464;2023-04-03T13:39:39;101974.63;;;20.01;35.75
29839;BME280;18669;53.356;-1.464;2023-04-03T13:42:27;101965.28;;;20.35;33.81
29839;BME280;18669;53.356;-1.464;2023-04-03T13:45:23;101968.91;;;20.99;33.31
29839;BME280;18669;53.356;-1.464;2023-04-03T13:48:18;101971.69;;;21.37;33.25
29839;BME280;18669;53.356;-1.464;2023-04-03T13:51:27;101952.03;;;21.97;31.66
29839;BME280;18669;53.356;-1.464;2023-04-03T13:54:37;101951.78;;;24.42;29.27
29839;BME280;18669;53.356;-1.464;2023-04-03T13:57:22;101951.00;;;23.92;29.91
29839;BME280;18669;53.356;-1.464;2023-04-03T14:00:28;101948.06;;;23.64;29.91
29839;BME280;18669;53.356;-1.464;2023-04-03T14:03:21;101946.03;;;23.01;31.37
29839;BME280;18669;53.356;-1.464;2023-04-03T14:06:08;101932.94;;;23.46;30.19
29839;BME280;18669;53.356;-1.464;2023-04-03T14:08:54;101935.00;;;23.41;30.43
29839;BME280;18669;53.356;-1.464;2023-04-03T14:11:40;101939.25;;;23.94;29.92
29839;BME280;18669;53.356;-1.464;2023-04-03T14:14:30;101929.78;;;23.71;30.93
29839;BME280;18669;53.356;-1.464;2023-04-03T14:17:21;101935.34;;;23.34;30.21
29839;BME280;18669;53.356;-1.464;2023-04-03T14:20:14;101923.50;;;23.71;30.28
29839;BME280;18669;53.356;-1.464;2023-04-03T14:23:00;101931.75;;;23.67;29.57
29839;BME280;18669;53.356;-1.464;2023-04-03T14:25:45;101932.81;;;23.14;30.06
29839;BME280;18669;53.356;-1.464;2023-04-03T14:28:31;101919.31;;;24.15;30.90
29839;BME280;18669;53.356;-1.464;2023-04-03T14:31:18;101915.28;;;24.99;28.90
29839;BME280;18669;53.356;-1.464;2023-04-03T14:34:03;101910.06;;;26.38;26.70
29839;BME280;18669;53.356;-1.464;2023-04-03T14:36:47;101911.16;;;27.14;25.46
29839;BME280;18669;53.356;-1.464;2023-04-03T14:39:32;101913.53;;;28.06;24.18
29839;BME280;18669;53.356;-1.464;2023-04-03T14:42:23;101899.38;;;27.78;24.83
29839;BME280;18669;53.356;-1.464;2023-04-03T14:45:11;101903.03;;;27.27;24.46
29839;BME280;18669;53.356;-1.464;2023-04-03T14:47:57;101904.03;;;27.13;25.02
29839;BME280;18669;53.356;-1.464;2023-04-03T14:50:42;101909.31;;;27.15;25.67
29839;BME280;18669;53.356;-1.464;2023-04-03T14:53:27;101892.94;;;25.97;25.98
29839;BME280;18669;53.356;-1.464;2023-04-03T14:56:17;101903.75;;;24.36;27.66
29839;BME280;18669;53.356;-1.464;2023-04-03T14:59:09;101896.97;;;22.63;29.63
29839;BME280;18669;53.356;-1.464;2023-04-03T15:01:55;101911.72;;;21.60;31.10
29839;BME280;18669;53.356;-1.464;2023-04-03T15:04:40;101907.88;;;21.28;31.55
29839;BME280;18669;53.356;-1.464;2023-04-03T15:07:27;101901.53;;;22.07;31.13
29839;BME280;18669;53.356;-1.464;2023-04-03T15:10:30;101884.81;;;22.56;29.84
29839;BME280;18669;53.356;-1.464;2023-04-03T15:13:15;101890.78;;;22.44;29.84
29839;BME280;18669;53.356;-1.464;2023-04-03T15:16:00;101888.53;;;22.54;30.14
29839;BME280;18669;53.356;-1.464;2023-04-03T15:18:46;101880.06;;;22.79;29.38
29839;BME280;18669;53.356;-1.464;2023-04-03T15:21:31;101877.19;;;21.93;31.01
29839;BME280;18669;53.356;-1.464;2023-04-03T15:24:16;101874.72;;;21.70;30.88
29839;BME280;18669;53.356;-1.464;2023-04-03T15:27:01;101869.84;;;22.33;30.62
29839;BME280;18669;53.356;-1.464;2023-04-03T15:29:46;101862.19;;;21.71;30.25
29839;BME280;18669;53.356;-1.464;2023-04-03T15:32:31;101867.84;;;20.85;32.03
29839;BME280;18669;53.356;-1.464;2023-04-03T15:35:18;101868.16;;;20.56;32.96
29839;BME280;18669;53.356;-1.464;2023-04-03T15:38:02;101867.63;;;20.05;33.39
29839;BME280;18669;53.356;-1.464;2023-04-03T15:40:47;101867.56;;;19.83;32.84
29839;BME280;18669;53.356;-1.464;2023-04-03T15:43:32;101860.41;;;18.88;33.88
29839;BME280;18669;53.356;-1.464;2023-04-03T15:46:18;101871.50;;;18.51;34.80
29839;BME280;18669;53.356;-1.464;2023-04-03T15:49:03;101857.63;;;18.91;35.29